sensor_id;sensor_type;location;lat;lon;timestamp;temperature;humidity
12408;DHT22;6268;48.188;17.134;2022-10-17T00:01:18;14.50;99.90
12408;DHT22;6268;48.188;17.134;2022-10-17T00:03:48;14.50;99.90
12408;DHT22;6268;48.188;17.134;2022-10-17T00:06:16;14.40;99.90
12408;DHT22;6268;48.188;17.134;2022-10-17T00:08:45;14.30;99.90
12408;DHT22;6268;48.188;17.134;2022-10-17T00:11:16;14.30;99.90
12408;DHT22;6268;48.188;17.134;2022-10-17T00:13:49;14.30;99.90
12408;DHT22;6268;48.188;17.134;2022-10-17T00:16:23;14.30;99.90
12408;DHT22;6268;48.188;17.134;2022-10-17T00:18:53;14.30;99.90
12408;DHT22;6268;48.188;17.134;2022-10-17T00:21:23;14.30;99.90
12408;DHT22;6268;48.188;17.134;2022-10-17T00:23:53;14.30;99.90
12408;DHT22;6268;48.188;17.134;2022-10-17T00:26:22;14.20;99.90
12408;DHT22;6268;48.188;17.134;2022-10-17T00:28:52;14.30;99.90
12408;DHT22;6268;48.188;17.134;2022-10-17T00:31:22;14.30;99.90
12408;DHT22;6268;48.188;17.134;2022-10-17T00:33:52;14.30;99.90
12408;DHT22;6268;48.188;17.134;2022-10-17T00:36:23;14.30;99.90
12408;DHT22;6268;48.188;17.134;2022-10-17T00:38:54;14.20;99.90
12408;DHT22;6268;48.188;17.134;2022-10-17T00:41:27;14.20;99.90
12408;DHT22;6268;48.188;17.134;2022-10-17T00:44:01;14.20;99.90
12408;DHT22;6268;48.188;17.134;2022-10-17T00:46:33;14.20;99.90
12408;DHT22;6268;48.188;17.134;2022-10-17T00:49:07;14.20;99.90
12408;DHT22;6268;48.188;17.134;2022-10-17T00:51:40;14.10;99.90
12408;DHT22;6268;48.188;17.134;2022-10-17T00:54:13;14.10;99.90
12408;DHT22;6268;48.188;17.134;2022-10-17T00:56:46;14.10;99.90
12408;DHT22;6268;48.188;17.134;2022-10-17T00:59:18;14.00;99.90
12408;DHT22;6268;48.188;17.134;2022-10-17T01:01:53;14.00;99.90
12408;DHT22;6268;48.188;17.134;2022-10-17T01:04:27;14.00;99.90
12408;DHT22;6268;48.188;17.134;2022-10-17T01:06:55;13.90;99.90
12408;DHT22;6268;48.188;17.134;2022-10-17T01:09:24;14.00;99.90
12408;DHT22;6268;48.188;17.134;2022-10-17T01:11:58;13.90;99.90
12408;DHT22;6268;48.188;17.134;2022-10-17T01:14:42;13.80;99.90
12408;DHT22;6268;48.188;17.134;2022-10-17T01:17:26;13.60;99.90
12408;DHT22;6268;48.188;17.134;2022-10-17T01:30:28;13.70;99.90
12408;DHT22;6268;48.188;17.134;2022-10-17T01:33:24;13.60;99.90
12408;DHT22;6268;48.188;17.134;2022-10-17T01:36:04;13.60;99.90
12408;DHT22;6268;48.188;17.134;2022-10-17T01:38:43;13.70;99.90
12408;DHT22;6268;48.188;17.134;2022-10-17T01:41:21;13.70;99.90
12408;DHT22;6268;48.188;17.134;2022-10-17T01:43:58;13.60;99.90
12408;DHT22;6268;48.188;17.134;2022-10-17T01:46:34;13.60;99.90
12408;DHT22;6268;48.188;17.134;2022-10-17T01:49:08;13.60;99.90
12408;DHT22;6268;48.188;17.134;2022-10-17T01:51:41;13.50;99.90
12408;DHT22;6268;48.188;17.134;2022-10-17T01:54:17;13.40;99.90
12408;DHT22;6268;48.188;17.134;2022-10-17T01:56:54;13.40;99.90
12408;DHT22;6268;48.188;17.134;2022-10-17T01:59:29;13.40;99.90
12408;DHT22;6268;48.188;17.134;2022-10-17T02:02:05;13.50;99.90
12408;DHT22;6268;48.188;17.134;2022-10-17T02:04:36;13.50;99.90
12408;DHT22;6268;48.188;17.134;2022-10-17T02:07:06;13.50;99.90
12408;DHT22;6268;48.188;17.134;2022-10-17T02:09:35;13.50;99.90
12408;DHT22;6268;48.188;17.134;2022-10-17T02:12:23;13.40;99.90
12408;DHT22;6268;48.188;17.134;2022-10-17T02:15:35;13.30;99.90
12408;DHT22;6268;48.188;17.134;2022-10-17T02:18:34;13.40;99.90
12408;DHT22;6268;48.188;17.134;2022-10-17T02:21:17;13.30;99.90
12408;DHT22;6268;48.188;17.134;2022-10-17T02:23:54;13.20;99.90
12408;DHT22;6268;48.188;17.134;2022-10-17T02:26:31;13.30;99.90
12408;DHT22;6268;48.188;17.134;2022-10-17T02:29:08;13.30;99.90
12408;DHT22;6268;48.188;17.134;2022-10-17T02:31:45;13.20;99.90
12408;DHT22;6268;48.188;17.134;2022-10-17T02:34:21;13.20;99.90
12408;DHT22;6268;48.188;17.134;2022-10-17T02:36:58;13.10;99.90
12408;DHT22;6268;48.188;17.134;2022-10-17T02:39:29;13.10;99.90
12408;DHT22;6268;48.188;17.134;2022-10-17T02:42:02;13.20;99.90
12408;DHT22;6268;48.188;17.134;2022-10-17T02:44:34;13.20;99.90
12408;DHT22;6268;48.188;17.134;2022-10-17T02:47:10;13.20;99.90
12408;DHT22;6268;48.188;17.134;2022-10-17T02:49:49;13.10;99.90
12408;DHT22;6268;48.188;17.134;2022-10-17T02:52:26;13.20;99.90
12408;DHT22;6268;48.188;17.134;2022-10-17T02:55:02;13.10;99.90
12408;DHT22;6268;48.188;17.134;2022-10-17T02:57:36;13.00;99.90
12408;DHT22;6268;48.188;17.134;2022-10-17T03:00:11;13.10;99.90
12408;DHT22;6268;48.188;17.134;2022-10-17T03:02:43;13.10;99.90
12408;DHT22;6268;48.188;17.134;2022-10-17T03:05:16;13.10;99.90
12408;DHT22;6268;48.188;17.134;2022-10-17T03:07:48;12.90;99.90
12408;DHT22;6268;48.188;17.134;2022-10-17T03:10:18;12.90;99.90
12408;DHT22;6268;48.188;17.134;2022-10-17T03:12:47;13.00;99.90
12408;DHT22;6268;48.188;17.134;2022-10-17T03:15:15;12.90;99.90
12408;DHT22;6268;48.188;17.134;2022-10-17T03:17:44;13.00;99.90
12408;DHT22;6268;48.188;17.134;2022-10-17T03:20:13;13.00;99.90
12408;DHT22;6268;48.188;17.134;2022-10-17T03:22:41;12.90;99.90
12408;DHT22;6268;48.188;17.134;2022-10-17T03:25:11;13.00;99.90
12408;DHT22;6268;48.188;17.134;2022-10-17T03:27:40;13.00;99.90
12408;DHT22;6268;48.188;17.134;2022-10-17T03:30:09;12.90;99.90
12408;DHT22;6268;48.188;17.134;2022-10-17T03:32:38;13.00;99.90
12408;DHT22;6268;48.188;17.134;2022-10-17T03:35:07;12.90;99.90
12408;DHT22;6268;48.188;17.134;2022-10-17T03:37:41;12.90;99.90
12408;DHT22;6268;48.188;17.134;2022-10-17T03:40:11;12.80;99.90
12408;DHT22;6268;48.188;17.134;2022-10-17T03:42:39;12.90;99.90
12408;DHT22;6268;48.188;17.134;2022-10-17T03:45:08;12.80;99.90
12408;DHT22;6268;48.188;17.134;2022-10-17T03:47:37;12.90;99.90
12408;DHT22;6268;48.188;17.134;2022-10-17T03:50:06;12.90;99.90
12408;DHT22;6268;48.188;17.134;2022-10-17T03:52:35;12.80;99.90
12408;DHT22;6268;48.188;17.134;2022-10-17T03:55:07;12.80;99.90
12408;DHT22;6268;48.188;17.134;2022-10-17T03:57:38;12.90;99.90
12408;DHT22;6268;48.188;17.134;2022-10-17T04:00:11;12.80;99.90
12408;DHT22;6268;48.188;17.134;2022-10-17T04:02:40;12.80;99.90
12408;DHT22;6268;48.188;17.134;2022-10-17T04:05:10;12.80;99.90
12408;DHT22;6268;48.188;17.134;2022-10-17T04:07:39;12.80;99.90
12408;DHT22;6268;48.188;17.134;2022-10-17T04:10:08;12.70;99.90
12408;DHT22;6268;48.188;17.134;2022-10-17T04:12:38;12.60;99.90
12408;DHT22;6268;48.188;17.134;2022-10-17T04:15:08;12.60;99.90
12408;DHT22;6268;48.188;17.134;2022-10-17T04:17:37;12.60;99.90
12408;DHT22;6268;48.188;17.134;2022-10-17T04:20:07;12.60;99.90
12408;DHT22;6268;48.188;17.134;2022-10-17T04:22:36;12.60;99.90
12408;DHT22;6268;48.188;17.134;2022-10-17T04:25:05;12.60;99.90
12408;DHT22;6268;48.188;17.134;2022-10-17T04:27:34;12.60;99.90
12408;DHT22;6268;48.188;17.134;2022-10-17T04:30:06;12.60;99.90
12408;DHT22;6268;48.188;17.134;2022-10-17T04:32:36;12.60;99.90
12408;DHT22;6268;48.188;17.134;2022-10-17T04:35:06;12.60;99.90
12408;DHT22;6268;48.188;17.134;2022-10-17T04:37:35;12.50;99.90
12408;DHT22;6268;48.188;17.134;2022-10-17T04:40:05;12.50;99.90
12408;DHT22;6268;48.188;17.134;2022-10-17T04:42:35;12.50;99.90
12408;DHT22;6268;48.188;17.134;2022-10-17T04:45:06;12.50;99.90
12408;DHT22;6268;48.188;17.134;2022-10-17T04:47:35;12.40;99.90
12408;DHT22;6268;48.188;17.134;2022-10-17T04:50:05;12.40;99.90
12408;DHT22;6268;48.188;17.134;2022-10-17T04:52:34;12.50;99.90
12408;DHT22;6268;48.188;17.134;2022-10-17T04:55:04;12.60;99.90
12408;DHT22;6268;48.188;17.134;2022-10-17T04:57:33;12.70;99.90
12408;DHT22;6268;48.188;17.134;2022-10-17T05:00:04;12.60;99.90
12408;DHT22;6268;48.188;17.134;2022-10-17T05:02:35;12.60;99.90
12408;DHT22;6268;48.188;17.134;2022-10-17T05:05:05;12.60;99.90
12408;DHT22;6268;48.188;17.134;2022-10-17T05:07:34;12.60;99.90
12408;DHT22;6268;48.188;17.134;2022-10-17T05:10:07;12.60;99.90
12408;DHT22;6268;48.188;17.134;2022-10-17T05:12:36;12.50;99.90
12408;DHT22;6268;48.188;17.134;2022-10-17T05:15:08;12.60;99.90
12408;DHT22;6268;48.188;17.134;2022-10-17T05:17:37;12.60;99.90
12408;DHT22;6268;48.188;17.134;2022-10-17T05:20:07;12.60;99.90
12408;DHT22;6268;48.188;17.134;2022-10-17T05:22:36;12.50;99.90
12408;DHT22;6268;48.188;17.134;2022-10-17T05:25:08;12.60;99.90
12408;DHT22;6268;48.188;17.134;2022-10-17T05:27:37;12.60;99.90
12408;DHT22;6268;48.188;17.134;2022-10-17T05:30:08;12.60;99.90
12408;DHT22;6268;48.188;17.134;2022-10-17T05:32:37;12.80;99.90
12408;DHT22;6268;48.188;17.134;2022-10-17T05:35:06;12.90;99.90
12408;DHT22;6268;48.188;17.134;2022-10-17T05:37:35;13.00;99.90
12408;DHT22;6268;48.188;17.134;2022-10-17T05:40:05;13.20;99.90
12408;DHT22;6268;48.188;17.134;2022-10-17T05:42:34;13.40;99.90
12408;DHT22;6268;48.188;17.134;2022-10-17T05:45:04;13.60;99.90
12408;DHT22;6268;48.188;17.134;2022-10-17T05:47:34;13.80;99.90
12408;DHT22;6268;48.188;17.134;2022-10-17T05:50:04;14.00;99.90
12408;DHT22;6268;48.188;17.134;2022-10-17T05:52:33;14.10;99.90
12408;DHT22;6268;48.188;17.134;2022-10-17T05:55:02;14.30;99.90
12408;DHT22;6268;48.188;17.134;2022-10-17T05:57:32;14.40;99.90
12408;DHT22;6268;48.188;17.134;2022-10-17T06:00:01;14.40;99.90
12408;DHT22;6268;48.188;17.134;2022-10-17T06:02:30;14.50;99.90
12408;DHT22;6268;48.188;17.134;2022-10-17T06:05:01;14.60;99.90
12408;DHT22;6268;48.188;17.134;2022-10-17T06:07:29;15.10;99.90
12408;DHT22;6268;48.188;17.134;2022-10-17T06:09:58;15.80;99.90
12408;DHT22;6268;48.188;17.134;2022-10-17T06:12:27;15.80;99.90
12408;DHT22;6268;48.188;17.134;2022-10-17T06:14:56;15.80;99.90
12408;DHT22;6268;48.188;17.134;2022-10-17T06:17:25;15.90;99.90
12408;DHT22;6268;48.188;17.134;2022-10-17T06:19:54;16.40;99.90
12408;DHT22;6268;48.188;17.134;2022-10-17T06:22:25;16.10;99.90
12408;DHT22;6268;48.188;17.134;2022-10-17T06:24:54;16.50;99.90
12408;DHT22;6268;48.188;17.134;2022-10-17T06:27:23;17.10;99.90
12408;DHT22;6268;48.188;17.134;2022-10-17T06:29:51;17.70;99.90
12408;DHT22;6268;48.188;17.134;2022-10-17T06:32:20;18.00;99.90
12408;DHT22;6268;48.188;17.134;2022-10-17T06:34:49;18.00;99.90
12408;DHT22;6268;48.188;17.134;2022-10-17T06:37:17;17.90;99.90
12408;DHT22;6268;48.188;17.134;2022-10-17T06:39:47;18.10;99.90
12408;DHT22;6268;48.188;17.134;2022-10-17T06:42:16;18.50;99.90
12408;DHT22;6268;48.188;17.134;2022-10-17T06:44:45;18.00;99.90
12408;DHT22;6268;48.188;17.134;2022-10-17T06:47:14;17.80;99.90
12408;DHT22;6268;48.188;17.134;2022-10-17T06:49:46;18.00;99.90
12408;DHT22;6268;48.188;17.134;2022-10-17T06:52:14;17.80;99.90
12408;DHT22;6268;48.188;17.134;2022-10-17T06:54:43;18.40;99.90
12408;DHT22;6268;48.188;17.134;2022-10-17T06:57:13;18.40;99.90
12408;DHT22;6268;48.188;17.134;2022-10-17T06:59:42;19.10;99.90
12408;DHT22;6268;48.188;17.134;2022-10-17T07:02:12;18.90;99.90
12408;DHT22;6268;48.188;17.134;2022-10-17T07:04:40;18.60;99.90
12408;DHT22;6268;48.188;17.134;2022-10-17T07:07:09;18.30;99.90
12408;DHT22;6268;48.188;17.134;2022-10-17T07:09:37;19.10;99.90
12408;DHT22;6268;48.188;17.134;2022-10-17T07:12:06;19.90;99.90
12408;DHT22;6268;48.188;17.134;2022-10-17T07:14:36;19.40;99.90
12408;DHT22;6268;48.188;17.134;2022-10-17T07:17:05;18.90;99.90
12408;DHT22;6268;48.188;17.134;2022-10-17T07:19:34;18.80;99.90
12408;DHT22;6268;48.188;17.134;2022-10-17T07:22:02;19.60;99.90
12408;DHT22;6268;48.188;17.134;2022-10-17T07:24:31;19.50;99.90
12408;DHT22;6268;48.188;17.134;2022-10-17T07:27:00;20.20;99.90
12408;DHT22;6268;48.188;17.134;2022-10-17T07:29:29;20.50;99.90
12408;DHT22;6268;48.188;17.134;2022-10-17T07:31:59;20.50;99.90
12408;DHT22;6268;48.188;17.134;2022-10-17T07:34:29;19.90;99.90
12408;DHT22;6268;48.188;17.134;2022-10-17T07:36:58;20.30;99.90
12408;DHT22;6268;48.188;17.134;2022-10-17T07:39:27;20.40;99.90
12408;DHT22;6268;48.188;17.134;2022-10-17T07:41:56;20.70;99.90
12408;DHT22;6268;48.188;17.134;2022-10-17T07:44:25;20.70;99.90
12408;DHT22;6268;48.188;17.134;2022-10-17T07:46:54;21.50;99.90
12408;DHT22;6268;48.188;17.134;2022-10-17T07:49:24;21.30;99.90
12408;DHT22;6268;48.188;17.134;2022-10-17T07:51:53;20.80;99.90
12408;DHT22;6268;48.188;17.134;2022-10-17T07:54:21;21.20;99.90
12408;DHT22;6268;48.188;17.134;2022-10-17T07:56:50;20.60;99.90
12408;DHT22;6268;48.188;17.134;2022-10-17T07:59:19;21.40;99.90
12408;DHT22;6268;48.188;17.134;2022-10-17T08:01:48;21.90;99.90
12408;DHT22;6268;48.188;17.134;2022-10-17T08:04:16;21.80;99.90
12408;DHT22;6268;48.188;17.134;2022-10-17T08:06:46;21.60;99.90
12408;DHT22;6268;48.188;17.134;2022-10-17T08:09:22;21.70;99.90
12408;DHT22;6268;48.188;17.134;2022-10-17T08:11:51;21.20;99.90
12408;DHT22;6268;48.188;17.134;2022-10-17T08:14:20;21.50;99.90
12408;DHT22;6268;48.188;17.134;2022-10-17T08:16:48;22.60;99.00
12408;DHT22;6268;48.188;17.134;2022-10-17T08:19:17;22.70;98.10
12408;DHT22;6268;48.188;17.134;2022-10-17T08:21:47;22.40;98.60
12408;DHT22;6268;48.188;17.134;2022-10-17T08:24:16;22.80;97.00
12408;DHT22;6268;48.188;17.134;2022-10-17T08:26:45;22.90;96.40
12408;DHT22;6268;48.188;17.134;2022-10-17T08:29:17;22.90;96.60
12408;DHT22;6268;48.188;17.134;2022-10-17T08:31:46;23.60;93.30
12408;DHT22;6268;48.188;17.134;2022-10-17T08:34:22;23.60;93.40
12408;DHT22;6268;48.188;17.134;2022-10-17T08:36:52;23.20;93.20
12408;DHT22;6268;48.188;17.134;2022-10-17T08:39:21;22.50;97.30
12408;DHT22;6268;48.188;17.134;2022-10-17T08:41:58;23.00;95.80
12408;DHT22;6268;48.188;17.134;2022-10-17T08:44:45;23.20;96.20
12408;DHT22;6268;48.188;17.134;2022-10-17T08:47:24;23.50;94.20
12408;DHT22;6268;48.188;17.134;2022-10-17T08:49:58;23.40;93.40
12408;DHT22;6268;48.188;17.134;2022-10-17T08:52:37;23.30;93.40
12408;DHT22;6268;48.188;17.134;2022-10-17T08:55:14;23.80;92.40
12408;DHT22;6268;48.188;17.134;2022-10-17T08:57:49;23.50;93.40
12408;DHT22;6268;48.188;17.134;2022-10-17T09:00:20;24.20;91.20
12408;DHT22;6268;48.188;17.134;2022-10-17T09:02:57;23.30;94.00
12408;DHT22;6268;48.188;17.134;2022-10-17T09:05:43;23.60;93.60
12408;DHT22;6268;48.188;17.134;2022-10-17T09:08:27;24.30;91.80
12408;DHT22;6268;48.188;17.134;2022-10-17T09:11:11;24.40;90.80
12408;DHT22;6268;48.188;17.134;2022-10-17T09:14:00;24.50;90.40
12408;DHT22;6268;48.188;17.134;2022-10-17T09:16:49;23.60;92.00
12408;DHT22;6268;48.188;17.134;2022-10-17T09:19:31;23.50;94.00
12408;DHT22;6268;48.188;17.134;2022-10-17T09:22:04;23.80;92.40
12408;DHT22;6268;48.188;17.134;2022-10-17T09:24:43;23.50;93.00
12408;DHT22;6268;48.188;17.134;2022-10-17T09:27:23;23.30;94.90
12408;DHT22;6268;48.188;17.134;2022-10-17T09:30:20;23.80;93.50
12408;DHT22;6268;48.188;17.134;2022-10-17T09:33:13;24.80;91.20
12408;DHT22;6268;48.188;17.134;2022-10-17T09:36:12;25.50;85.40
12408;DHT22;6268;48.188;17.134;2022-10-17T09:38:46;24.60;89.40
12408;DHT22;6268;48.188;17.134;2022-10-17T09:41:20;24.10;90.90
12408;DHT22;6268;48.188;17.134;2022-10-17T09:44:17;24.60;90.10
12408;DHT22;6268;48.188;17.134;2022-10-17T09:46:59;23.30;92.80
12408;DHT22;6268;48.188;17.134;2022-10-17T09:49:34;24.00;93.00
12408;DHT22;6268;48.188;17.134;2022-10-17T09:52:08;23.90;91.30
12408;DHT22;6268;48.188;17.134;2022-10-17T09:54:43;23.00;93.00
12408;DHT22;6268;48.188;17.134;2022-10-17T09:57:17;22.80;95.10
12408;DHT22;6268;48.188;17.134;2022-10-17T09:59:54;23.20;94.50
12408;DHT22;6268;48.188;17.134;2022-10-17T10:02:26;23.20;95.00
12408;DHT22;6268;48.188;17.134;2022-10-17T10:04:59;23.70;92.90
12408;DHT22;6268;48.188;17.134;2022-10-17T10:07:35;23.30;93.10
12408;DHT22;6268;48.188;17.134;2022-10-17T10:10:07;23.20;94.40
12408;DHT22;6268;48.188;17.134;2022-10-17T10:13:17;23.60;93.10
12408;DHT22;6268;48.188;17.134;2022-10-17T10:15:48;24.00;92.30
12408;DHT22;6268;48.188;17.134;2022-10-17T10:18:29;24.10;90.40
12408;DHT22;6268;48.188;17.134;2022-10-17T10:21:08;24.10;90.80
12408;DHT22;6268;48.188;17.134;2022-10-17T10:23:40;23.70;91.70
12408;DHT22;6268;48.188;17.134;2022-10-17T10:26:32;23.60;91.50
12408;DHT22;6268;48.188;17.134;2022-10-17T10:29:17;24.00;91.10
12408;DHT22;6268;48.188;17.134;2022-10-17T10:31:55;24.40;89.20
12408;DHT22;6268;48.188;17.134;2022-10-17T10:34:34;24.50;88.60
12408;DHT22;6268;48.188;17.134;2022-10-17T10:37:16;24.20;89.80
12408;DHT22;6268;48.188;17.134;2022-10-17T10:39:48;23.50;91.40
12408;DHT22;6268;48.188;17.134;2022-10-17T10:42:25;23.10;92.90
12408;DHT22;6268;48.188;17.134;2022-10-17T10:45:03;23.30;93.00
12408;DHT22;6268;48.188;17.134;2022-10-17T10:48:11;24.00;92.00
12408;DHT22;6268;48.188;17.134;2022-10-17T10:50:48;24.10;90.50
12408;DHT22;6268;48.188;17.134;2022-10-17T10:53:33;23.70;91.50
12408;DHT22;6268;48.188;17.134;2022-10-17T10:56:17;24.00;90.60
12408;DHT22;6268;48.188;17.134;2022-10-17T10:58:53;23.90;90.30
12408;DHT22;6268;48.188;17.134;2022-10-17T11:01:30;24.00;90.90
12408;DHT22;6268;48.188;17.134;2022-10-17T11:04:25;23.80;91.10
12408;DHT22;6268;48.188;17.134;2022-10-17T11:07:00;23.90;90.80
12408;DHT22;6268;48.188;17.134;2022-10-17T11:09:41;24.00;91.60
12408;DHT22;6268;48.188;17.134;2022-10-17T11:12:19;23.90;92.10
12408;DHT22;6268;48.188;17.134;2022-10-17T11:14:56;24.20;91.40
12408;DHT22;6268;48.188;17.134;2022-10-17T11:17:35;24.40;90.30
12408;DHT22;6268;48.188;17.134;2022-10-17T11:20:14;24.50;90.00
12408;DHT22;6268;48.188;17.134;2022-10-17T11:22:48;24.10;91.20
12408;DHT22;6268;48.188;17.134;2022-10-17T11:25:31;23.50;92.40
12408;DHT22;6268;48.188;17.134;2022-10-17T11:28:01;23.30;93.30
12408;DHT22;6268;48.188;17.134;2022-10-17T11:30:41;23.40;93.30
12408;DHT22;6268;48.188;17.134;2022-10-17T11:33:23;23.60;93.00
12408;DHT22;6268;48.188;17.134;2022-10-17T11:35:59;24.00;92.60
12408;DHT22;6268;48.188;17.134;2022-10-17T11:38:39;24.00;92.00
12408;DHT22;6268;48.188;17.134;2022-10-17T11:41:19;23.80;92.00
12408;DHT22;6268;48.188;17.134;2022-10-17T11:43:53;23.90;92.70
12408;DHT22;6268;48.188;17.134;2022-10-17T11:46:27;23.60;93.40
12408;DHT22;6268;48.188;17.134;2022-10-17T11:49:04;23.60;93.80
12408;DHT22;6268;48.188;17.134;2022-10-17T11:51:47;23.70;93.40
12408;DHT22;6268;48.188;17.134;2022-10-17T11:54:30;23.90;92.50
12408;DHT22;6268;48.188;17.134;2022-10-17T11:57:21;23.70;92.20
12408;DHT22;6268;48.188;17.134;2022-10-17T12:00:17;23.80;92.10
12408;DHT22;6268;48.188;17.134;2022-10-17T12:02:56;23.80;92.10
12408;DHT22;6268;48.188;17.134;2022-10-17T12:05:38;23.80;91.60
12408;DHT22;6268;48.188;17.134;2022-10-17T12:08:18;23.80;91.60
12408;DHT22;6268;48.188;17.134;2022-10-17T12:11:01;23.80;90.80
12408;DHT22;6268;48.188;17.134;2022-10-17T12:13:53;23.70;91.00
12408;DHT22;6268;48.188;17.134;2022-10-17T12:16:47;23.70;90.80
12408;DHT22;6268;48.188;17.134;2022-10-17T12:19:27;23.50;88.80
12408;DHT22;6268;48.188;17.134;2022-10-17T12:22:04;23.30;89.80
12408;DHT22;6268;48.188;17.134;2022-10-17T12:24:51;23.10;88.20
12408;DHT22;6268;48.188;17.134;2022-10-17T12:27:34;23.00;87.80
12408;DHT22;6268;48.188;17.134;2022-10-17T12:30:23;23.10;87.60
12408;DHT22;6268;48.188;17.134;2022-10-17T12:33:02;23.00;87.10
12408;DHT22;6268;48.188;17.134;2022-10-17T12:35:36;23.00;87.70
12408;DHT22;6268;48.188;17.134;2022-10-17T12:38:22;23.20;89.20
12408;DHT22;6268;48.188;17.134;2022-10-17T12:40:54;23.20;85.30
12408;DHT22;6268;48.188;17.134;2022-10-17T12:46:41;23.10;84.00
12408;DHT22;6268;48.188;17.134;2022-10-17T12:49:21;23.00;82.20
12408;DHT22;6268;48.188;17.134;2022-10-17T12:55:25;23.00;83.40
12408;DHT22;6268;48.188;17.134;2022-10-17T12:57:56;22.90;82.00
12408;DHT22;6268;48.188;17.134;2022-10-17T13:00:33;22.90;80.60
12408;DHT22;6268;48.188;17.134;2022-10-17T13:03:11;22.80;80.10
12408;DHT22;6268;48.188;17.134;2022-10-17T13:05:46;22.70;79.50
12408;DHT22;6268;48.188;17.134;2022-10-17T13:08:21;22.80;79.80
12408;DHT22;6268;48.188;17.134;2022-10-17T13:10:54;22.90;80.40
12408;DHT22;6268;48.188;17.134;2022-10-17T13:13:32;22.90;80.30
12408;DHT22;6268;48.188;17.134;2022-10-17T13:16:05;22.90;79.30
12408;DHT22;6268;48.188;17.134;2022-10-17T13:18:34;23.00;78.90
12408;DHT22;6268;48.188;17.134;2022-10-17T13:21:06;22.90;79.00
12408;DHT22;6268;48.188;17.134;2022-10-17T13:23:42;22.90;78.60
12408;DHT22;6268;48.188;17.134;2022-10-17T13:26:16;22.90;78.80
12408;DHT22;6268;48.188;17.134;2022-10-17T13:29:00;22.90;78.70
12408;DHT22;6268;48.188;17.134;2022-10-17T13:31:32;22.90;78.80
12408;DHT22;6268;48.188;17.134;2022-10-17T13:34:04;22.90;78.10
12408;DHT22;6268;48.188;17.134;2022-10-17T13:36:42;22.90;78.60
12408;DHT22;6268;48.188;17.134;2022-10-17T13:39:16;22.90;79.60
12408;DHT22;6268;48.188;17.134;2022-10-17T13:42:20;22.90;79.30
12408;DHT22;6268;48.188;17.134;2022-10-17T13:44:50;22.80;78.90
12408;DHT22;6268;48.188;17.134;2022-10-17T13:47:21;22.70;79.10
12408;DHT22;6268;48.188;17.134;2022-10-17T13:49:51;22.80;80.80
12408;DHT22;6268;48.188;17.134;2022-10-17T13:52:24;22.80;80.70
12408;DHT22;6268;48.188;17.134;2022-10-17T13:55:06;22.90;82.30
12408;DHT22;6268;48.188;17.134;2022-10-17T13:57:43;22.80;81.00
12408;DHT22;6268;48.188;17.134;2022-10-17T14:00:18;22.80;81.00
12408;DHT22;6268;48.188;17.134;2022-10-17T14:02:48;22.70;82.00
12408;DHT22;6268;48.188;17.134;2022-10-17T14:05:19;22.70;82.00
12408;DHT22;6268;48.188;17.134;2022-10-17T14:07:51;22.70;83.30
12408;DHT22;6268;48.188;17.134;2022-10-17T14:10:42;22.70;83.10
12408;DHT22;6268;48.188;17.134;2022-10-17T14:13:20;22.70;83.80
12408;DHT22;6268;48.188;17.134;2022-10-17T14:15:51;22.60;84.00
12408;DHT22;6268;48.188;17.134;2022-10-17T14:18:24;22.60;85.10
12408;DHT22;6268;48.188;17.134;2022-10-17T14:21:01;22.60;84.40
12408;DHT22;6268;48.188;17.134;2022-10-17T14:23:52;22.60;85.10
12408;DHT22;6268;48.188;17.134;2022-10-17T14:26:47;22.50;85.50
12408;DHT22;6268;48.188;17.134;2022-10-17T14:29:23;22.50;86.20
12408;DHT22;6268;48.188;17.134;2022-10-17T14:32:02;22.50;86.20
12408;DHT22;6268;48.188;17.134;2022-10-17T14:34:36;22.50;86.50
12408;DHT22;6268;48.188;17.134;2022-10-17T14:37:08;22.50;87.70
12408;DHT22;6268;48.188;17.134;2022-10-17T14:39:38;22.40;87.40
12408;DHT22;6268;48.188;17.134;2022-10-17T14:42:16;22.40;87.40
12408;DHT22;6268;48.188;17.134;2022-10-17T14:44:49;22.40;88.10
12408;DHT22;6268;48.188;17.134;2022-10-17T14:47:24;22.40;88.80
12408;DHT22;6268;48.188;17.134;2022-10-17T14:50:21;22.40;88.80
12408;DHT22;6268;48.188;17.134;2022-10-17T14:53:00;22.30;90.00
12408;DHT22;6268;48.188;17.134;2022-10-17T14:55:32;22.30;90.20
12408;DHT22;6268;48.188;17.134;2022-10-17T14:58:23;22.30;90.70
12408;DHT22;6268;48.188;17.134;2022-10-17T15:00:55;22.30;91.00
12408;DHT22;6268;48.188;17.134;2022-10-17T15:03:25;22.20;91.20
12408;DHT22;6268;48.188;17.134;2022-10-17T15:05:54;22.20;91.60
12408;DHT22;6268;48.188;17.134;2022-10-17T15:08:24;22.20;91.60
12408;DHT22;6268;48.188;17.134;2022-10-17T15:10:53;22.20;91.90
12408;DHT22;6268;48.188;17.134;2022-10-17T15:13:21;22.10;92.20
12408;DHT22;6268;48.188;17.134;2022-10-17T15:15:57;22.10;93.10
12408;DHT22;6268;48.188;17.134;2022-10-17T15:18:26;22.10;93.60
12408;DHT22;6268;48.188;17.134;2022-10-17T15:20:54;22.00;94.00
12408;DHT22;6268;48.188;17.134;2022-10-17T15:23:32;22.00;94.20
12408;DHT22;6268;48.188;17.134;2022-10-17T15:26:01;21.90;94.90
12408;DHT22;6268;48.188;17.134;2022-10-17T15:28:29;21.80;95.50
12408;DHT22;6268;48.188;17.134;2022-10-17T15:30:59;21.80;95.90
12408;DHT22;6268;48.188;17.134;2022-10-17T15:33:28;21.80;96.30
12408;DHT22;6268;48.188;17.134;2022-10-17T15:35:57;21.70;96.80
12408;DHT22;6268;48.188;17.134;2022-10-17T15:38:25;21.70;97.40
12408;DHT22;6268;48.188;17.134;2022-10-17T15:40:54;21.60;98.00
12408;DHT22;6268;48.188;17.134;2022-10-17T15:43:22;21.50;98.40
12408;DHT22;6268;48.188;17.134;2022-10-17T15:45:51;21.50;98.40
12408;DHT22;6268;48.188;17.134;2022-10-17T15:48:28;21.40;98.90
12408;DHT22;6268;48.188;17.134;2022-10-17T15:50:58;21.40;99.90
12408;DHT22;6268;48.188;17.134;2022-10-17T15:53:27;21.30;99.90
12408;DHT22;6268;48.188;17.134;2022-10-17T15:55:57;21.20;99.00
12408;DHT22;6268;48.188;17.134;2022-10-17T15:58:31;21.10;98.10
12408;DHT22;6268;48.188;17.134;2022-10-17T16:01:04;21.00;98.20
12408;DHT22;6268;48.188;17.134;2022-10-17T16:03:34;21.00;98.40
12408;DHT22;6268;48.188;17.134;2022-10-17T16:06:03;20.90;98.10
12408;DHT22;6268;48.188;17.134;2022-10-17T16:08:38;20.80;98.50
12408;DHT22;6268;48.188;17.134;2022-10-17T16:11:11;20.70;99.00
12408;DHT22;6268;48.188;17.134;2022-10-17T16:13:49;20.60;99.70
12408;DHT22;6268;48.188;17.134;2022-10-17T16:16:20;20.60;99.70
12408;DHT22;6268;48.188;17.134;2022-10-17T16:18:50;20.60;99.90
12408;DHT22;6268;48.188;17.134;2022-10-17T16:21:21;20.60;99.90
12408;DHT22;6268;48.188;17.134;2022-10-17T16:23:52;20.50;99.90
12408;DHT22;6268;48.188;17.134;2022-10-17T16:26:21;20.60;99.90
12408;DHT22;6268;48.188;17.134;2022-10-17T16:28:50;20.50;99.90
12408;DHT22;6268;48.188;17.134;2022-10-17T16:31:23;20.30;99.90